Time;durP1;ratioP1;P1;durP2;ratioP2;P2;SDS_P1;SDS_P2;PMS_P1;PMS_P2;Temp;Humidity;BMP_temperature;BMP_pressure;BME280_temperature;BME280_humidity;BME280_pressure;Samples;Min_cycle;Max_cycle;Signal;HPM_P1;HPM_P2
2022/07/04 17:43:02;;;;;;;6.07;2.30;;;;;;;25.04;100.00;96373.31;5087678;27;20619;-51
2022/07/04 17:45:35;;;;;;;4.28;2.10;;;;;;;25.09;100.00;96357.25;5082972;28;20068;-44
2022/07/04 17:48:04;;;;;;;2.40;1.77;;;;;;;25.07;100.00;96366.66;5085411;28;20080;-47
2022/07/04 17:50:32;;;;;;;2.63;1.98;;;;;;;25.00;100.00;96357.88;5084938;28;20060;-44
2022/07/04 17:53:02;;;;;;;3.25;2.20;;;;;;;24.90;100.00;96365.75;5085581;28;20083;-49
2022/07/04 17:55:31;;;;;;;3.63;2.10;;;;;;;24.85;100.00;96358.38;5083648;28;20082;-48
2022/07/04 17:57:59;;;;;;;4.18;2.40;;;;;;;24.79;100.00;96349.34;5079127;28;20070;-46
2022/07/04 18:00:29;;;;;;;6.13;2.45;;;;;;;24.77;100.00;96362.22;5082186;28;20551;-47
2022/07/04 18:02:58;;;;;;;8.02;2.50;;;;;;;24.78;100.00;96355.00;5085223;28;20075;-49
2022/07/04 18:05:26;;;;;;;7.07;2.60;;;;;;;24.75;100.00;96356.28;5085624;28;20052;-46
2022/07/04 18:07:54;;;;;;;5.75;2.35;;;;;;;24.72;100.00;96367.53;5085715;28;20099;-45
2022/07/04 18:10:22;;;;;;;6.25;2.40;;;;;;;24.67;100.00;96367.41;5085576;28;20084;-48
2022/07/04 18:12:51;;;;;;;5.10;2.20;;;;;;;24.56;100.00;96362.84;5080677;28;20064;-46
2022/07/04 18:15:19;;;;;;;3.75;2.13;;;;;;;24.51;100.00;96365.44;5085309;28;20079;-48
2022/07/04 18:17:49;;;;;;;3.22;2.00;;;;;;;24.51;100.00;96362.75;5085312;28;20415;-46
2022/07/04 18:20:18;;;;;;;3.28;2.20;;;;;;;24.41;100.00;96357.13;5085218;28;20071;-48
2022/07/04 18:22:46;;;;;;;4.65;2.35;;;;;;;24.30;100.00;96353.34;5085013;28;20087;-48
2022/07/04 18:25:15;;;;;;;3.22;2.30;;;;;;;24.24;100.00;96355.09;5071181;28;20088;-45
2022/07/04 18:27:43;;;;;;;3.88;2.20;;;;;;;24.27;100.00;96356.50;5074299;28;20072;-41
2022/07/04 18:30:14;;;;;;;4.32;2.08;;;;;;;24.20;100.00;96356.63;5095296;27;20495;-45
2022/07/04 18:32:43;;;;;;;4.93;2.65;;;;;;;24.05;100.00;96361.63;5095995;28;20092;-50
2022/07/04 18:35:13;;;;;;;6.50;2.60;;;;;;;23.98;100.00;96361.72;5097397;28;20093;-49
2022/07/04 18:37:41;;;;;;;5.43;2.35;;;;;;;23.97;100.00;96359.28;5094723;28;20090;-50
2022/07/04 18:45:39;;;;;;;4.00;2.30;;;;;;;23.80;100.00;96361.81;5096175;28;20040;-46
2022/07/04 18:48:10;;;;;;;5.32;2.20;;;;;;;23.73;100.00;96358.41;5100430;28;20554;-49
2022/07/04 18:50:40;;;;;;;6.30;2.20;;;;;;;23.83;100.00;96358.66;5095274;28;20071;-49
2022/07/04 18:53:08;;;;;;;4.60;2.10;;;;;;;23.80;100.00;96359.94;5087372;28;20070;-50
2022/07/04 18:55:40;;;;;;;5.18;2.40;;;;;;;23.76;100.00;96369.53;5083918;28;20555;-52
2022/07/04 18:58:10;;;;;;;4.70;2.53;;;;;;;23.67;100.00;96374.44;5083061;28;20068;-49
2022/07/04 19:00:38;;;;;;;2.95;2.10;;;;;;;23.61;100.00;96377.19;5081082;28;20064;-51
2022/07/04 19:03:07;;;;;;;4.43;2.40;;;;;;;23.59;100.00;96385.47;5078620;28;20071;-52
2022/07/04 19:05:36;;;;;;;4.50;2.00;;;;;;;23.51;100.00;96393.06;5078873;28;20463;-47
2022/07/04 19:08:06;;;;;;;3.83;2.42;;;;;;;23.46;100.00;96402.63;5079189;28;20095;-44
2022/07/04 19:10:39;;;;;;;6.47;2.58;;;;;;;23.31;100.00;96412.16;5078955;28;20028;-51
2022/07/04 19:13:08;;;;;;;5.88;2.90;;;;;;;23.24;100.00;96416.81;5080631;28;20071;-50
2022/07/04 19:15:39;;;;;;;8.90;2.80;;;;;;;23.29;100.00;96415.06;5079139;28;20083;-44
2022/07/04 19:18:07;;;;;;;;;;;;;;;23.33;100.00;96424.34;5079869;28;20064;-45
2022/07/04 19:20:35;;;;;;;4.03;2.60;;;;;;;23.39;100.00;96433.38;5081982;28;19952;-51
2022/07/04 19:23:08;;;;;;;3.13;2.42;;;;;;;23.28;100.00;96431.44;5088603;28;20063;-50
2022/07/04 19:25:37;;;;;;;4.38;2.70;;;;;;;23.14;100.00;96442.34;5081766;28;20083;-51
2022/07/04 19:28:22;;;;;;;5.72;2.97;;;;;;;23.17;100.00;96451.84;5055689;28;20067;-46
2022/07/04 19:30:52;;;;;;;5.32;2.95;;;;;;;23.09;100.00;96466.44;5061726;28;20084;-49
2022/07/04 19:33:21;;;;;;;5.50;3.30;;;;;;;22.86;100.00;96480.50;5060189;28;20060;-51
2022/07/04 19:35:50;;;;;;;7.40;3.35;;;;;;;22.44;100.00;96508.97;5062194;28;20098;-52
2022/07/04 19:38:20;;;;;;;5.93;3.53;;;;;;;22.22;100.00;96529.97;5058863;28;20075;-49
2022/07/04 19:40:49;;;;;;;9.52;3.90;;;;;;;22.08;100.00;96552.56;5066566;28;20091;-50
2022/07/04 19:43:18;;;;;;;4.68;3.47;;;;;;;21.74;100.00;96562.63;5070658;28;20072;-47
2022/07/04 19:45:46;;;;;;;6.63;3.35;;;;;;;21.45;100.00;96586.25;5061942;28;20571;-43
2022/07/04 19:48:15;;;;;;;7.05;3.33;;;;;;;21.08;100.00;96603.81;5058049;28;20067;-47
2022/07/04 19:50:44;;;;;;;7.75;4.00;;;;;;;20.57;100.00;96640.06;5069144;28;20727;-50
2022/07/04 19:53:13;;;;;;;6.55;4.13;;;;;;;20.37;100.00;96650.72;5068980;28;20523;-44
2022/07/04 19:55:46;;;;;;;5.85;3.42;;;;;;;20.25;100.00;96652.31;5069620;28;20080;-45
2022/07/04 19:58:15;;;;;;;6.53;3.95;;;;;;;20.28;100.00;96659.94;5061658;28;20428;-44
2022/07/04 20:00:43;;;;;;;6.60;3.85;;;;;;;20.46;100.00;96669.28;5069652;28;20075;-43
2022/07/04 20:03:11;;;;;;;8.00;4.60;;;;;;;20.14;100.00;96674.31;5069557;28;20072;-48
2022/07/04 20:05:40;;;;;;;8.82;4.18;;;;;;;19.98;100.00;96693.38;5064735;28;20067;-46
2022/07/04 20:08:09;;;;;;;7.93;4.25;;;;;;;19.91;100.00;96699.50;5069718;28;20075;-46
2022/07/04 20:10:37;;;;;;;6.00;3.80;;;;;;;19.76;100.00;96706.84;5068883;28;20501;-46
2022/07/04 20:13:11;;;;;;;7.75;3.80;;;;;;;19.70;100.00;96704.13;5069639;28;20064;-44
2022/07/04 20:15:40;;;;;;;7.88;3.30;;;;;;;19.51;100.00;96709.13;5069158;28;20068;-51
2022/07/04 20:18:09;;;;;;;7.88;3.90;;;;;;;19.48;100.00;96722.88;5069501;28;20076;-45
2022/07/04 20:20:38;;;;;;;18.02;3.70;;;;;;;19.39;100.00;96724.84;5064978;28;20056;-44
2022/07/04 20:23:07;;;;;;;7.70;3.20;;;;;;;19.24;100.00;96734.00;5069993;28;20037;-50
2022/07/04 20:25:37;;;;;;;7.13;3.28;;;;;;;19.25;100.00;96738.31;5069824;28;20080;-46
2022/07/04 20:28:07;;;;;;;6.40;3.50;;;;;;;19.24;100.00;96742.03;5069059;28;20064;-46
2022/07/04 20:30:39;;;;;;;6.32;3.45;;;;;;;19.16;100.00;96743.78;5067925;28;20130;-47
2022/07/04 20:33:07;;;;;;;9.02;3.90;;;;;;;19.20;100.00;96746.91;5065069;28;20064;-48
2022/07/04 20:35:36;;;;;;;7.57;3.88;;;;;;;19.02;100.00;96754.53;5067331;28;20072;-45
2022/07/04 20:38:04;;;;;;;6.15;3.38;;;;;;;19.07;100.00;96752.97;5068775;28;20071;-48
2022/07/04 20:40:33;;;;;;;5.38;3.60;;;;;;;18.98;100.00;96756.78;5069472;28;20076;-44
2022/07/04 20:43:01;;;;;;;4.88;3.05;;;;;;;18.88;100.00;96764.28;5062164;28;20068;-46
2022/07/04 20:45:31;;;;;;;6.00;3.30;;;;;;;18.85;100.00;96770.81;5068703;28;20064;-43
2022/07/04 20:47:59;;;;;;;4.85;2.70;;;;;;;18.80;100.00;96775.09;5068776;28;20514;-46
2022/07/04 20:50:28;;;;;;;5.88;2.92;;;;;;;18.73;100.00;96770.47;5078387;28;20059;-45
2022/07/04 20:52:56;;;;;;;4.88;2.65;;;;;;;18.78;100.00;96775.25;5086897;28;20079;-46
2022/07/04 20:55:25;;;;;;;3.55;2.78;;;;;;;18.77;100.00;96784.28;5068814;28;20083;-49
2022/07/04 20:57:53;;;;;;;5.10;2.80;;;;;;;18.84;100.00;96785.19;5068801;28;20071;-47
2022/07/04 21:00:22;;;;;;;7.85;2.83;;;;;;;18.82;100.00;96783.72;5068411;28;20056;-42
2022/07/04 21:02:51;;;;;;;2.90;2.50;;;;;;;18.79;100.00;96786.75;5068172;28;20080;-46
2022/07/04 21:05:21;;;;;;;6.43;2.92;;;;;;;18.76;100.00;96784.50;5075770;28;20060;-42
2022/07/04 21:07:51;;;;;;;6.80;3.17;;;;;;;18.71;100.00;96787.69;5084502;28;20064;-46
2022/07/04 21:10:20;;;;;;;6.28;2.80;;;;;;;18.79;100.00;96784.94;5089104;28;20075;-43
2022/07/04 21:12:50;;;;;;;5.20;2.67;;;;;;;18.82;100.00;96783.72;5088805;28;20075;-44
2022/07/04 21:15:19;;;;;;;4.43;2.67;;;;;;;18.86;100.00;96782.34;5088651;28;20063;-42
2022/07/04 21:17:54;;;;;;;4.60;2.58;;;;;;;18.81;100.00;96777.56;5085801;28;20076;-42
2022/07/04 21:20:23;;;;;;;3.92;2.55;;;;;;;18.84;100.00;96779.84;5088437;28;20059;-43
2022/07/04 21:22:52;;;;;;;7.30;3.17;;;;;;;18.88;100.00;96788.31;5086080;28;20578;-47
2022/07/04 21:25:20;;;;;;;4.07;2.72;;;;;;;18.87;100.00;96792.03;5092924;28;20079;-44
2022/07/04 21:27:49;;;;;;;5.57;3.17;;;;;;;18.86;100.00;96796.53;5090405;28;20557;-45
2022/07/04 21:30:17;;;;;;;5.60;3.00;;;;;;;18.81;100.00;96795.44;5082842;28;20075;-46
2022/07/04 21:32:46;;;;;;;4.63;3.08;;;;;;;18.95;100.00;96794.56;5088441;28;20403;-44
2022/07/04 21:35:16;;;;;;;5.95;3.00;;;;;;;18.84;100.00;96798.56;5088345;28;20063;-50
2022/07/04 21:37:55;;;;;;;5.93;3.03;;;;;;;18.94;100.00;96790.25;5086411;28;20102;-49
2022/07/04 21:40:24;;;;;;;5.10;3.10;;;;;;;18.87;100.00;96800.84;5086050;28;20084;-44
2022/07/04 21:42:52;;;;;;;7.45;3.40;;;;;;;18.88;100.00;96791.81;5081612;28;20074;-46
2022/07/04 21:45:22;;;;;;;5.75;3.30;;;;;;;18.82;100.00;96789.88;5081546;28;20060;-48
2022/07/04 21:47:50;;;;;;;4.95;3.30;;;;;;;18.88;100.00;96799.00;5082278;28;20435;-51
2022/07/04 21:50:20;;;;;;;6.45;3.53;;;;;;;18.97;100.00;96797.88;5088308;28;20094;-49
2022/07/04 21:52:49;;;;;;;6.50;3.40;;;;;;;18.93;100.00;96800.13;5088008;28;20083;-49
2022/07/04 21:55:18;;;;;;;6.07;3.47;;;;;;;18.91;100.00;96812.81;5088634;28;20581;-51
2022/07/04 21:57:46;;;;;;;5.82;3.15;;;;;;;18.93;100.00;96808.13;5085697;28;20110;-42
2022/07/04 22:00:15;;;;;;;7.45;3.60;;;;;;;18.94;100.00;96811.63;5087353;28;20110;-43
2022/07/04 22:02:43;;;;;;;4.50;3.13;;;;;;;18.96;100.00;96806.94;5088298;28;20436;-43
2022/07/04 22:05:13;;;;;;;4.60;2.97;;;;;;;18.98;100.00;96810.22;5088118;28;20055;-41
2022/07/04 22:07:42;;;;;;;6.68;3.00;;;;;;;18.95;100.00;96805.25;5088557;28;20079;-43
2022/07/04 22:10:11;;;;;;;6.72;3.50;;;;;;;19.00;100.00;96807.38;5087599;28;20453;-46
2022/07/04 22:12:40;;;;;;;5.05;3.42;;;;;;;18.98;100.00;96810.22;5085432;28;20067;-42
2022/07/04 22:15:09;;;;;;;4.50;2.83;;;;;;;18.99;100.00;96817.22;5087184;28;20075;-45
2022/07/04 22:17:38;;;;;;;4.57;3.08;;;;;;;18.89;100.00;96811.34;5083844;28;20528;-44
2022/07/04 22:20:07;;;;;;;5.32;2.95;;;;;;;19.00;100.00;96810.06;5090967;28;20477;-42
2022/07/04 22:22:35;;;;;;;4.28;3.17;;;;;;;18.93;100.00;96810.81;5090237;28;20083;-44
2022/07/04 22:25:06;;;;;;;4.88;2.65;;;;;;;19.04;100.00;96806.81;5087649;28;20067;-47
2022/07/04 22:27:35;;;;;;;5.93;3.20;;;;;;;19.03;100.00;96802.47;5087442;28;20502;-42
2022/07/04 22:30:04;;;;;;;6.03;3.03;;;;;;;18.91;100.00;96809.31;5091793;28;20068;-48
2022/07/04 22:32:33;;;;;;;5.22;3.28;;;;;;;18.95;100.00;96803.41;5090926;28;20086;-42
2022/07/04 22:35:01;;;;;;;6.43;3.15;;;;;;;18.92;100.00;96811.78;5087184;28;20102;-43
2022/07/04 22:37:29;;;;;;;7.95;3.25;;;;;;;18.83;100.00;96809.44;5091590;28;20497;-45
2022/07/04 22:39:58;;;;;;;7.68;3.40;;;;;;;18.85;100.00;96810.91;5091116;28;20078;-43
2022/07/04 22:42:27;;;;;;;9.13;3.63;;;;;;;18.80;100.00;96813.31;5091099;28;20127;-46
2022/07/04 22:44:56;;;;;;;5.78;2.97;;;;;;;18.83;100.00;96818.28;5089933;28;20482;-45
2022/07/04 22:47:24;;;;;;;8.63;3.33;;;;;;;18.82;100.00;96821.13;5086933;28;20060;-43
2022/07/04 22:49:52;;;;;;;6.00;3.03;;;;;;;18.83;100.00;96825.47;5088991;28;20097;-45
2022/07/04 22:52:21;;;;;;;6.80;3.60;;;;;;;18.80;100.00;96823.19;5090429;28;20095;-42
2022/07/04 22:54:51;;;;;;;7.10;3.50;;;;;;;18.87;100.00;96819.56;5088380;28;20068;-44
2022/07/04 22:57:21;;;;;;;6.60;3.65;;;;;;;18.94;100.00;96822.31;5091047;28;20064;-43
2022/07/04 22:59:51;;;;;;;7.97;3.90;;;;;;;18.89;100.00;96819.38;5091359;28;20072;-45
2022/07/04 23:02:20;;;;;;;5.03;3.45;;;;;;;19.00;100.00;96812.72;5091573;28;20074;-43
2022/07/04 23:04:50;;;;;;;6.97;3.88;;;;;;;19.04;100.00;96814.00;5090521;28;20451;-50
2022/07/04 23:07:20;;;;;;;9.45;4.18;;;;;;;18.94;100.00;96811.63;5091561;28;20063;-43
2022/07/04 23:09:49;;;;;;;7.80;4.05;;;;;;;19.04;100.00;96793.44;5085085;28;20067;-45
2022/07/04 23:12:18;;;;;;;5.57;4.10;;;;;;;18.91;100.00;96793.28;5090720;28;20463;-48
2022/07/04 23:14:46;;;;;;;4.32;3.90;;;;;;;18.98;100.00;96794.19;5091425;28;20071;-43
2022/07/04 23:17:17;;;;;;;7.53;4.28;;;;;;;19.09;100.00;96800.88;5089065;28;20422;-42
2022/07/04 23:19:45;;;;;;;5.57;3.70;;;;;;;18.97;100.00;96792.53;5096892;28;20480;-43
2022/07/04 23:22:14;;;;;;;7.85;4.10;;;;;;;18.87;100.00;96786.66;5084293;28;20475;-44
2022/07/04 23:24:42;;;;;;;5.50;4.00;;;;;;;18.81;100.00;96795.44;5090580;28;20071;-43
2022/07/04 23:27:11;;;;;;;6.55;3.85;;;;;;;18.90;100.00;96795.13;5090529;28;20553;-43
2022/07/04 23:29:40;;;;;;;5.95;4.18;;;;;;;18.85;100.00;96786.84;5090330;28;20060;-43
2022/07/04 23:32:08;;;;;;;9.88;4.15;;;;;;;18.85;100.00;96789.50;5088493;28;20064;-47
2022/07/04 23:34:38;;;;;;;7.47;3.95;;;;;;;18.89;100.00;96789.97;5091278;28;20071;-48
2022/07/04 23:37:07;;;;;;;5.75;3.70;;;;;;;19.01;100.00;96785.78;5065692;28;20061;-43
2022/07/04 23:39:35;;;;;;;9.20;3.80;;;;;;;18.90;100.00;96776.44;5071511;28;20056;-43
2022/07/04 23:42:04;;;;;;;7.80;3.80;;;;;;;18.88;100.00;96786.47;5066362;28;20064;-46
2022/07/04 23:44:33;;;;;;;5.50;3.15;;;;;;;18.89;100.00;96776.59;5064279;28;20071;-48
2022/07/04 23:47:01;;;;;;;5.68;3.53;;;;;;;18.90;100.00;96779.09;5070183;28;20071;-45
2022/07/04 23:49:29;;;;;;;5.45;3.65;;;;;;;18.87;100.00;96778.66;5070486;28;20080;-46
2022/07/04 23:51:59;;;;;;;5.15;3.85;;;;;;;18.89;100.00;96772.13;5067256;28;20454;-43
2022/07/04 23:54:27;;;;;;;7.18;3.97;;;;;;;18.92;100.00;96773.56;5069658;28;20056;-42
2022/07/04 23:56:56;;;;;;;4.90;3.65;;;;;;;18.97;100.00;96758.63;5067490;28;20083;-46
2022/07/04 23:59:24;;;;;;;6.95;4.03;;;;;;;18.96;100.00;96762.31;5069820;28;20064;-43
